createdAt,value
2023-11-27T00:01:10.869Z,4.75
2023-11-27T00:03:40.135Z,4.72
2023-11-27T00:06:10.274Z,5.50
2023-11-27T00:08:40.034Z,3.65
2023-11-27T00:11:08.908Z,4.47
2023-11-27T00:13:37.398Z,3.13
2023-11-27T00:16:07.794Z,3.85
2023-11-27T00:18:36.308Z,4.32
2023-11-27T00:21:04.853Z,3.60
2023-11-27T00:23:33.185Z,4.25
2023-11-27T00:26:03.011Z,4.72
2023-11-27T00:28:31.488Z,4.35
2023-11-27T00:31:00.122Z,5.65
2023-11-27T00:33:28.516Z,3.92
2023-11-27T00:35:56.902Z,4.15
2023-11-27T00:38:25.215Z,4.53
2023-11-27T00:40:53.725Z,3.17
2023-11-27T00:43:23.491Z,3.60
2023-11-27T00:45:51.975Z,4.68
2023-11-27T00:48:20.402Z,3.95
2023-11-27T00:50:48.766Z,5.38
2023-11-27T00:53:20.225Z,3.53
2023-11-27T00:55:49.357Z,4.53
2023-11-27T00:58:17.969Z,3.20
2023-11-27T01:00:47.775Z,3.40
2023-11-27T01:03:16.300Z,4.10
2023-11-27T01:05:44.951Z,3.83
2023-11-27T01:08:14.682Z,3.45
2023-11-27T01:10:44.095Z,5.70
2023-11-27T01:13:12.987Z,4.22
2023-11-27T01:15:42.405Z,3.08
2023-11-27T01:18:12.372Z,3.50
2023-11-27T01:20:41.432Z,3.58
2023-11-27T01:23:09.858Z,3.85
2023-11-27T01:25:38.282Z,4.50
2023-11-27T01:28:07.274Z,4.60
2023-11-27T01:30:35.702Z,6.57
2023-11-27T01:33:06.433Z,4.78
2023-11-27T01:35:36.395Z,3.20
2023-11-27T01:38:04.769Z,3.65
2023-11-27T01:40:33.206Z,3.28
2023-11-27T01:43:01.871Z,5.22
2023-11-27T01:45:33.139Z,4.55
2023-11-27T01:48:01.852Z,5.03
2023-11-27T01:50:30.370Z,4.57
2023-11-27T01:53:00.709Z,4.35
2023-11-27T01:55:30.142Z,4.00
2023-11-27T01:57:59.014Z,3.47
2023-11-27T02:00:27.425Z,3.75
2023-11-27T02:02:56.973Z,3.75
2023-11-27T02:05:25.493Z,2.65
2023-11-27T02:07:54.329Z,4.22
2023-11-27T02:10:24.143Z,3.70
2023-11-27T02:12:52.655Z,4.10
2023-11-27T02:15:21.123Z,3.72
2023-11-27T02:17:49.917Z,3.70
2023-11-27T02:20:18.456Z,3.50
2023-11-27T02:22:47.694Z,5.80
2023-11-27T02:25:17.472Z,3.05
2023-11-27T02:27:45.929Z,4.38
2023-11-27T02:30:14.994Z,3.13
2023-11-27T02:32:43.437Z,2.72
2023-11-27T02:35:12.084Z,3.90
2023-11-27T02:37:40.936Z,3.60
2023-11-27T02:40:12.626Z,2.47
2023-11-27T02:42:56.428Z,3.38
2023-11-27T02:45:24.769Z,4.28
2023-11-27T02:47:53.383Z,3.50
2023-11-27T02:50:22.020Z,3.60
2023-11-27T02:52:51.053Z,3.10
2023-11-27T02:55:20.854Z,3.60
2023-11-27T02:57:50.928Z,4.22
2023-11-27T03:00:22.459Z,3.33
2023-11-27T03:02:51.049Z,3.03
2023-11-27T03:05:20.598Z,3.60
2023-11-27T03:07:49.075Z,4.63
2023-11-27T03:10:18.246Z,3.42
2023-11-27T03:12:46.702Z,2.58
2023-11-27T03:15:17.039Z,2.63
2023-11-27T03:17:46.598Z,3.25
2023-11-27T03:20:15.544Z,3.65
2023-11-27T03:22:44.436Z,3.35
2023-11-27T03:25:12.830Z,2.72
2023-11-27T03:27:42.007Z,3.95
2023-11-27T03:30:12.206Z,3.05
2023-11-27T03:32:42.034Z,2.95
2023-11-27T03:35:11.044Z,2.40
2023-11-27T03:37:39.550Z,6.05
2023-11-27T03:40:09.660Z,3.22
2023-11-27T03:42:38.030Z,2.70
2023-11-27T03:45:07.716Z,2.88
2023-11-27T03:47:36.145Z,4.80
2023-11-27T03:50:06.999Z,2.85
2023-11-27T03:52:35.528Z,3.38
2023-11-27T03:55:04.033Z,3.90
2023-11-27T03:57:32.542Z,2.97
2023-11-27T04:00:01.663Z,4.63
2023-11-27T04:02:30.210Z,2.80
2023-11-27T04:04:59.415Z,2.72
2023-11-27T04:07:29.579Z,2.90
2023-11-27T04:09:58.097Z,3.03
2023-11-27T04:12:26.525Z,2.88
2023-11-27T04:14:53.941Z,2.42
2023-11-27T04:17:22.339Z,2.83
2023-11-27T04:19:50.669Z,3.08
2023-11-27T04:22:19.258Z,2.28
2023-11-27T04:24:49.958Z,4.10
2023-11-27T04:27:18.409Z,3.50
2023-11-27T04:29:46.815Z,3.28
2023-11-27T04:32:15.170Z,2.33
2023-11-27T04:34:43.715Z,2.28
2023-11-27T04:37:15.928Z,3.05
2023-11-27T04:39:44.787Z,2.28
2023-11-27T04:42:14.504Z,3.28
2023-11-27T04:44:43.020Z,2.38
2023-11-27T04:47:11.449Z,4.43
2023-11-27T04:49:40.018Z,4.47
2023-11-27T04:52:09.043Z,4.28
2023-11-27T04:54:39.376Z,4.32
2023-11-27T04:57:09.256Z,5.10
2023-11-27T04:59:39.014Z,3.50
2023-11-27T05:02:07.491Z,4.28
2023-11-27T05:04:36.004Z,4.65
2023-11-27T05:07:04.710Z,3.30
2023-11-27T05:09:34.298Z,4.97
2023-11-27T05:12:02.746Z,3.00
2023-11-27T05:14:31.145Z,3.22
2023-11-27T05:17:00.981Z,2.85
2023-11-27T05:19:31.243Z,4.03
2023-11-27T05:21:59.940Z,4.85
2023-11-27T05:24:28.877Z,6.15
2023-11-27T05:27:01.955Z,3.88
2023-11-27T05:29:31.855Z,2.97
2023-11-27T05:32:08.790Z,3.38
2023-11-27T05:34:37.724Z,3.28
2023-11-27T05:37:07.824Z,2.65
2023-11-27T05:39:36.935Z,2.58
2023-11-27T05:42:05.739Z,3.13
2023-11-27T05:44:34.106Z,3.15
2023-11-27T05:47:04.655Z,3.83
2023-11-27T05:49:33.267Z,5.03
2023-11-27T05:52:01.815Z,3.80
2023-11-27T05:54:30.196Z,2.78
2023-11-27T05:56:58.851Z,4.70
2023-11-27T05:59:27.559Z,3.05
2023-11-27T06:01:55.944Z,1.95
2023-11-27T06:04:25.802Z,2.70
2023-11-27T06:06:54.502Z,3.85
2023-11-27T06:09:23.464Z,3.33
2023-11-27T06:11:52.262Z,4.00
2023-11-27T06:14:20.661Z,2.80
2023-11-27T06:16:49.196Z,5.53
2023-11-27T06:19:17.881Z,3.72
2023-11-27T06:21:47.574Z,4.53
2023-11-27T06:24:16.058Z,3.88
2023-11-27T06:26:44.540Z,2.92
2023-11-27T06:29:12.939Z,2.15
2023-11-27T06:31:41.428Z,6.30
2023-11-27T06:34:09.835Z,3.00
2023-11-27T06:36:38.214Z,4.28
2023-11-27T06:39:09.166Z,4.93
2023-11-27T06:41:37.527Z,3.78
2023-11-27T06:44:06.148Z,4.90
2023-11-27T06:46:34.665Z,3.15
2023-11-27T06:49:05.558Z,4.65
2023-11-27T06:51:33.996Z,3.90
2023-11-27T06:54:02.359Z,3.72
2023-11-27T06:56:34.655Z,3.65
2023-11-27T06:59:04.350Z,6.32
2023-11-27T07:01:32.733Z,3.38
2023-11-27T07:04:01.964Z,3.53
2023-11-27T07:06:30.861Z,4.53
2023-11-27T07:09:00.474Z,5.20
2023-11-27T07:11:29.876Z,4.15
2023-11-27T07:13:59.750Z,2.20
2023-11-27T07:16:28.764Z,3.33
2023-11-27T07:18:58.602Z,4.55
2023-11-27T07:21:28.475Z,2.70
2023-11-27T07:23:57.712Z,2.30
2023-11-27T07:26:26.605Z,2.42
2023-11-27T07:28:56.809Z,2.60
2023-11-27T07:31:29.008Z,2.08
2023-11-27T07:33:57.757Z,2.95
2023-11-27T07:36:28.372Z,2.50
2023-11-27T07:38:57.202Z,3.42
2023-11-27T07:41:25.860Z,3.25
2023-11-27T07:43:54.288Z,2.63
2023-11-27T07:46:22.700Z,3.50
2023-11-27T07:48:52.540Z,3.15
2023-11-27T07:51:21.114Z,2.65
2023-11-27T07:53:49.715Z,2.10
2023-11-27T07:56:28.906Z,2.25
2023-11-27T07:58:57.692Z,3.25
2023-11-27T08:01:27.137Z,2.78
2023-11-27T08:03:59.072Z,2.33
2023-11-27T08:06:27.751Z,1.98
2023-11-27T08:08:57.060Z,3.58
2023-11-27T08:11:34.064Z,3.05
2023-11-27T08:14:02.608Z,2.90
2023-11-27T08:16:31.703Z,2.53
2023-11-27T08:19:01.486Z,2.45
2023-11-27T08:21:29.889Z,2.85
2023-11-27T08:23:59.410Z,2.13
2023-11-27T08:26:40.527Z,2.28
2023-11-27T08:29:09.273Z,3.13
2023-11-27T08:31:38.213Z,2.85
2023-11-27T08:34:08.900Z,2.33
2023-11-27T08:36:39.509Z,2.58
2023-11-27T08:39:11.702Z,1.83
2023-11-27T08:41:40.165Z,2.35
2023-11-27T08:44:09.764Z,3.08
2023-11-27T08:46:38.491Z,2.75
2023-11-27T08:49:08.592Z,2.05
2023-11-27T08:51:37.068Z,2.17
2023-11-27T08:54:05.720Z,4.05
2023-11-27T08:56:35.266Z,2.03
2023-11-27T08:59:03.979Z,2.13
2023-11-27T09:01:32.440Z,2.10
2023-11-27T09:04:00.848Z,2.13
2023-11-27T09:06:31.086Z,1.90
2023-11-27T09:09:00.659Z,2.00
2023-11-27T09:11:32.663Z,2.20
2023-11-27T09:14:02.180Z,2.30
2023-11-27T09:16:30.686Z,2.78
2023-11-27T09:18:59.121Z,2.20
2023-11-27T09:21:27.566Z,2.05
2023-11-27T09:23:58.013Z,2.30
2023-11-27T09:26:26.462Z,2.28
2023-11-27T09:28:54.926Z,1.83
2023-11-27T09:31:24.358Z,1.98
2023-11-27T09:33:52.787Z,1.80
2023-11-27T09:36:21.330Z,1.90
2023-11-27T09:38:50.604Z,3.15
2023-11-27T09:41:20.418Z,2.75
2023-11-27T09:43:48.971Z,3.25
2023-11-27T09:46:21.331Z,2.20
2023-11-27T09:48:55.005Z,1.98
2023-11-27T09:51:26.441Z,1.70
2023-11-27T09:53:58.453Z,2.45
2023-11-27T09:56:30.007Z,2.05
2023-11-27T09:59:00.925Z,2.08
2023-11-27T10:01:30.686Z,2.58
2023-11-27T10:04:01.608Z,1.90
2023-11-27T10:06:34.970Z,1.75
2023-11-27T10:09:08.843Z,1.85
2023-11-27T10:11:39.056Z,1.90
2023-11-27T10:16:41.718Z,2.20
2023-11-27T10:19:17.529Z,3.63
2023-11-27T10:21:45.906Z,2.22
2023-11-27T10:24:15.039Z,1.90
2023-11-27T10:26:46.216Z,2.20
2023-11-27T10:29:25.901Z,2.15
2023-11-27T10:31:59.407Z,2.28
2023-11-27T10:34:28.628Z,2.38
2023-11-27T10:37:01.833Z,2.15
2023-11-27T10:39:34.376Z,2.15
2023-11-27T10:42:08.767Z,1.77
2023-11-27T10:44:38.732Z,2.65
2023-11-27T10:47:09.760Z,2.47
2023-11-27T10:49:41.098Z,2.53
2023-11-27T10:52:12.052Z,2.45
2023-11-27T10:54:43.532Z,2.00
2023-11-27T10:57:15.113Z,2.30
2023-11-27T10:59:45.458Z,2.13
2023-11-27T11:02:14.479Z,2.38
2023-11-27T11:04:52.889Z,3.15
2023-11-27T11:07:27.525Z,2.70
2023-11-27T11:09:57.445Z,2.65
2023-11-27T11:12:29.165Z,2.38
2023-11-27T11:14:58.742Z,2.20
2023-11-27T11:17:38.112Z,2.78
2023-11-27T11:20:20.430Z,2.30
2023-11-27T11:22:59.924Z,2.10
2023-11-27T11:25:37.932Z,2.67
2023-11-27T11:28:15.282Z,2.40
2023-11-27T11:30:43.721Z,2.45
2023-11-27T11:33:19.399Z,2.53
2023-11-27T11:35:52.071Z,2.33
2023-11-27T11:38:23.509Z,2.60
2023-11-27T11:40:52.777Z,2.20
2023-11-27T11:43:23.897Z,2.30
2023-11-27T11:45:54.406Z,2.35
2023-11-27T11:48:36.714Z,1.92
2023-11-27T11:51:16.714Z,2.05
2023-11-27T11:53:48.762Z,1.90
2023-11-27T11:56:20.783Z,2.28
2023-11-27T11:58:52.737Z,2.15
2023-11-27T12:01:21.315Z,2.10
2023-11-27T12:03:51.531Z,2.17
2023-11-27T12:06:19.957Z,2.92
2023-11-27T12:08:49.884Z,2.08
2023-11-27T12:11:18.342Z,1.90
2023-11-27T12:13:45.932Z,2.20
2023-11-27T12:16:18.312Z,1.95
2023-11-27T12:18:53.244Z,2.00
2023-11-27T12:21:25.007Z,2.28
2023-11-27T12:23:54.786Z,2.20
2023-11-27T12:26:25.025Z,2.08
2023-11-27T12:28:54.497Z,2.40
2023-11-27T12:31:28.826Z,2.60
2023-11-27T12:33:58.464Z,3.63
2023-11-27T12:36:27.558Z,2.22
2023-11-27T12:38:56.137Z,2.10
2023-11-27T12:41:34.150Z,1.83
2023-11-27T12:44:14.805Z,2.45
2023-11-27T12:46:50.869Z,2.38
2023-11-27T12:49:22.004Z,2.78
2023-11-27T12:51:53.202Z,2.15
2023-11-27T12:54:24.105Z,2.00
2023-11-27T12:56:53.857Z,2.15
2023-11-27T12:59:25.113Z,1.90
2023-11-27T13:01:58.778Z,2.08
2023-11-27T13:04:31.154Z,2.05
2023-11-27T13:07:01.101Z,1.60
2023-11-27T13:09:29.957Z,2.22
2023-11-27T13:11:58.564Z,1.90
2023-11-27T13:14:26.979Z,2.10
2023-11-27T13:16:56.861Z,1.90
2023-11-27T13:19:26.094Z,2.13
2023-11-27T13:21:56.721Z,2.30
2023-11-27T13:24:31.349Z,2.08
2023-11-27T13:27:06.284Z,2.17
2023-11-27T13:29:34.683Z,2.40
2023-11-27T13:32:04.685Z,2.20
2023-11-27T13:34:38.119Z,2.20
2023-11-27T13:37:09.963Z,2.22
2023-11-27T13:39:42.267Z,2.63
2023-11-27T13:42:10.816Z,2.22
2023-11-27T13:44:39.411Z,2.97
2023-11-27T13:47:10.686Z,2.10
2023-11-27T13:49:42.306Z,2.28
2023-11-27T13:52:15.727Z,3.03
2023-11-27T13:54:49.791Z,2.33
2023-11-27T13:57:28.493Z,2.20
2023-11-27T13:59:58.841Z,2.10
2023-11-27T14:02:30.363Z,3.65
2023-11-27T14:05:07.782Z,2.17
2023-11-27T14:07:42.416Z,2.30
2023-11-27T14:10:26.836Z,3.00
2023-11-27T14:13:02.526Z,2.58
2023-11-27T14:15:40.923Z,2.20
2023-11-27T14:18:46.554Z,2.50
2023-11-27T14:21:47.485Z,2.00
2023-11-27T14:24:18.543Z,2.00
2023-11-27T14:27:18.047Z,2.38
2023-11-27T14:29:50.110Z,2.60
2023-11-27T14:32:18.073Z,2.38
2023-11-27T14:34:52.929Z,1.90
2023-11-27T14:37:22.480Z,2.40
2023-11-27T14:39:52.038Z,2.75
2023-11-27T14:42:21.424Z,2.53
2023-11-27T14:44:50.239Z,3.05
2023-11-27T14:47:22.957Z,3.65
2023-11-27T14:49:57.014Z,2.78
2023-11-27T14:52:28.987Z,4.07
2023-11-27T14:54:59.679Z,5.30
2023-11-27T14:57:30.133Z,4.40
2023-11-27T15:00:02.394Z,5.32
2023-11-27T15:02:31.246Z,2.42
2023-11-27T15:05:01.149Z,3.63
2023-11-27T15:07:29.685Z,3.80
2023-11-27T15:09:58.181Z,2.85
2023-11-27T15:12:33.418Z,2.08
2023-11-27T15:15:01.822Z,2.78
2023-11-27T15:17:30.730Z,4.47
2023-11-27T15:20:00.835Z,3.55
2023-11-27T15:22:29.230Z,2.55
2023-11-27T15:24:57.775Z,3.65
2023-11-27T15:27:27.593Z,2.67
2023-11-27T15:29:57.275Z,2.72
2023-11-27T15:32:26.873Z,3.20
2023-11-27T15:34:55.912Z,2.63
2023-11-27T15:37:27.201Z,3.55
2023-11-27T15:39:58.380Z,3.53
2023-11-27T15:42:28.247Z,4.57
2023-11-27T15:44:56.813Z,2.78
2023-11-27T15:47:25.848Z,6.10
2023-11-27T15:49:54.447Z,4.78
2023-11-27T15:52:22.927Z,3.35
2023-11-27T15:54:52.707Z,3.53
2023-11-27T15:57:20.998Z,4.38
2023-11-27T15:59:49.320Z,2.35
2023-11-27T16:02:17.844Z,2.25
2023-11-27T16:04:47.562Z,2.60
2023-11-27T16:07:15.960Z,2.45
2023-11-27T16:09:44.345Z,4.20
2023-11-27T16:12:15.227Z,2.33
2023-11-27T16:14:43.946Z,2.88
2023-11-27T16:17:14.813Z,2.35
2023-11-27T16:19:43.452Z,2.60
2023-11-27T16:22:11.870Z,2.35
2023-11-27T16:24:40.214Z,3.10
2023-11-27T16:27:08.533Z,5.43
2023-11-27T16:29:38.332Z,2.50
2023-11-27T16:32:08.731Z,2.60
2023-11-27T16:34:37.361Z,2.60
2023-11-27T16:37:06.035Z,3.75
2023-11-27T16:39:34.309Z,2.42
2023-11-27T16:42:05.388Z,3.28
2023-11-27T16:44:33.801Z,4.35
2023-11-27T16:47:03.596Z,2.85
2023-11-27T16:49:32.077Z,2.83
2023-11-27T16:52:00.556Z,3.97
2023-11-27T16:54:28.989Z,3.25
2023-11-27T16:56:57.488Z,2.80
2023-11-27T16:59:25.946Z,3.20
2023-11-27T17:01:54.634Z,2.70
2023-11-27T17:04:25.826Z,3.60
2023-11-27T17:06:54.297Z,3.50
2023-11-27T17:09:23.430Z,3.10
2023-11-27T17:11:51.874Z,62.47
2023-11-27T17:14:20.575Z,66.45
2023-11-27T17:16:52.562Z,80.15
2023-11-27T17:19:22.508Z,66.18
2023-11-27T17:21:52.274Z,74.13
2023-11-27T17:24:21.310Z,61.55
2023-11-27T17:26:49.716Z,74.97
2023-11-27T17:29:18.831Z,60.22
2023-11-27T17:31:47.266Z,58.40
2023-11-27T17:34:15.773Z,51.40
2023-11-27T17:36:45.165Z,62.88
2023-11-27T17:39:14.997Z,54.75
2023-11-27T17:41:43.553Z,64.25
2023-11-27T17:44:12.048Z,50.15
2023-11-27T17:46:40.728Z,53.40
2023-11-27T17:49:09.311Z,57.53
2023-11-27T17:51:38.424Z,51.60
2023-11-27T17:54:07.060Z,51.53
2023-11-27T17:56:40.671Z,45.83
2023-11-27T17:59:13.858Z,51.35
2023-11-27T18:01:42.403Z,55.65
2023-11-27T18:04:10.857Z,51.65
2023-11-27T18:06:41.862Z,49.45
2023-11-27T18:09:12.702Z,45.65
2023-11-27T18:11:42.914Z,47.67
2023-11-27T18:14:11.846Z,37.05
2023-11-27T18:16:40.641Z,46.55
2023-11-27T18:19:09.746Z,46.90
2023-11-27T18:21:40.309Z,41.03
2023-11-27T18:24:10.124Z,46.17
2023-11-27T18:26:38.942Z,41.10
2023-11-27T18:29:10.018Z,48.85
2023-11-27T18:31:38.427Z,46.20
2023-11-27T18:34:06.850Z,42.38
2023-11-27T18:36:35.662Z,42.13
2023-11-27T18:39:04.460Z,36.38
2023-11-27T18:41:33.095Z,35.42
2023-11-27T18:44:01.784Z,41.33
2023-11-27T18:46:32.007Z,41.67
2023-11-27T18:49:00.654Z,43.00
2023-11-27T18:51:29.069Z,38.58
2023-11-27T18:53:57.469Z,35.92
2023-11-27T18:56:25.868Z,27.45
2023-11-27T18:58:55.044Z,35.90
2023-11-27T19:01:24.816Z,35.97
2023-11-27T19:03:54.954Z,27.85
2023-11-27T19:06:24.140Z,21.92
2023-11-27T19:08:52.648Z,14.63
2023-11-27T19:11:21.496Z,12.32
2023-11-27T19:13:49.992Z,14.00
2023-11-27T19:16:18.631Z,14.90
2023-11-27T19:18:51.871Z,14.15
2023-11-27T19:21:21.861Z,13.88
2023-11-27T19:23:50.217Z,12.05
2023-11-27T19:26:18.703Z,14.82
2023-11-27T19:28:48.979Z,13.50
2023-11-27T19:31:17.734Z,13.30
2023-11-27T19:33:47.593Z,11.88
2023-11-27T19:36:23.545Z,12.55
2023-11-27T19:38:52.059Z,12.30
2023-11-27T19:41:22.965Z,12.23
2023-11-27T19:43:51.538Z,7.90
2023-11-27T19:46:20.941Z,9.23
2023-11-27T19:48:51.613Z,8.77
2023-11-27T19:51:21.485Z,10.20
2023-11-27T19:53:49.913Z,12.70
2023-11-27T19:56:19.409Z,12.05
2023-11-27T19:58:47.803Z,10.77
2023-11-27T20:01:17.126Z,8.82
2023-11-27T20:03:45.777Z,8.35
2023-11-27T20:06:14.227Z,9.23
2023-11-27T20:08:43.951Z,12.05
2023-11-27T20:11:15.526Z,8.40
2023-11-27T20:13:44.982Z,8.38
2023-11-27T20:16:13.594Z,9.95
2023-11-27T20:18:41.966Z,11.73
2023-11-27T20:21:10.363Z,10.68
2023-11-27T20:23:40.025Z,10.55
2023-11-27T20:26:10.028Z,8.70
2023-11-27T20:28:38.494Z,9.15
2023-11-27T20:31:07.032Z,8.30
2023-11-27T20:33:36.883Z,9.77
2023-11-27T20:36:05.751Z,7.95
2023-11-27T20:38:35.324Z,7.40
2023-11-27T20:41:04.493Z,10.13
2023-11-27T20:46:17.798Z,6.60
2023-11-27T20:48:50.621Z,5.28
2023-11-27T20:51:19.075Z,6.93
2023-11-27T20:53:47.461Z,7.25
2023-11-27T20:56:15.914Z,6.78
2023-11-27T20:58:47.177Z,7.13
2023-11-27T21:01:19.034Z,6.30
2023-11-27T21:03:49.396Z,6.55
2023-11-27T21:06:20.453Z,6.10
2023-11-27T21:08:50.029Z,7.80
2023-11-27T21:11:21.126Z,6.88
2023-11-27T21:13:49.991Z,8.85
2023-11-27T21:16:21.294Z,6.60
2023-11-27T21:18:50.649Z,5.75
2023-11-27T21:21:19.931Z,8.48
2023-11-27T21:23:48.343Z,7.57
2023-11-27T21:26:16.706Z,6.82
2023-11-27T21:28:45.266Z,7.63
2023-11-27T21:31:15.726Z,6.60
2023-11-27T21:33:46.431Z,5.93
2023-11-27T21:36:14.933Z,9.50
2023-11-27T21:38:43.366Z,5.28
2023-11-27T21:41:11.982Z,5.00
2023-11-27T21:43:40.481Z,7.13
2023-11-27T21:46:09.470Z,5.47
2023-11-27T21:48:37.952Z,7.68
2023-11-27T21:51:08.323Z,7.80
2023-11-27T21:53:36.862Z,6.07
2023-11-27T21:56:06.213Z,7.18
2023-11-27T21:58:34.721Z,6.75
2023-11-27T22:01:15.553Z,6.55
2023-11-27T22:03:46.363Z,6.28
2023-11-27T22:06:16.463Z,4.68
2023-11-27T22:08:45.311Z,5.22
2023-11-27T22:11:13.749Z,6.32
2023-11-27T22:13:42.964Z,7.22
2023-11-27T22:16:12.563Z,7.05
2023-11-27T22:18:41.099Z,8.07
2023-11-27T22:21:10.370Z,6.97
2023-11-27T22:23:40.229Z,8.10
2023-11-27T22:26:08.846Z,5.90
2023-11-27T22:28:37.312Z,7.72
2023-11-27T22:31:06.452Z,7.82
2023-11-27T22:33:35.052Z,7.03
2023-11-27T22:36:03.572Z,6.13
2023-11-27T22:38:32.188Z,4.85
2023-11-27T22:41:02.101Z,5.30
2023-11-27T22:43:30.817Z,6.18
2023-11-27T22:45:59.399Z,5.68
2023-11-27T22:48:29.885Z,5.22
2023-11-27T22:51:00.212Z,4.90
2023-11-27T22:53:30.172Z,5.50
2023-11-27T22:55:59.210Z,8.27
2023-11-27T22:58:29.646Z,3.97
2023-11-27T23:00:58.126Z,6.85
2023-11-27T23:03:27.355Z,5.40
2023-11-27T23:05:56.595Z,8.45
2023-11-27T23:08:24.940Z,7.13
2023-11-27T23:10:53.626Z,4.93
2023-11-27T23:13:22.138Z,6.75
2023-11-27T23:15:51.902Z,5.90
2023-11-27T23:18:20.418Z,6.30
2023-11-27T23:20:48.890Z,6.40
2023-11-27T23:23:17.733Z,3.72
2023-11-27T23:25:46.877Z,4.25
2023-11-27T23:28:15.847Z,5.15
2023-11-27T23:30:45.012Z,4.70
2023-11-27T23:33:14.800Z,6.22
2023-11-27T23:35:45.423Z,5.45
2023-11-27T23:38:15.725Z,7.38
2023-11-27T23:40:44.555Z,5.85
2023-11-27T23:43:13.197Z,4.68
2023-11-27T23:45:41.788Z,3.13
2023-11-27T23:48:10.380Z,3.17
2023-11-27T23:50:43.375Z,5.50
2023-11-27T23:53:12.209Z,3.85
2023-11-27T23:55:41.335Z,4.60
2023-11-27T23:58:09.852Z,4.70
